1874 NOT_NAMED (1874011S14064)


IBTrACS version v04r00. Visit IBTrACS website for data access.
Please direct all questions to the IBTrACS Q and A forum

Storm track - Intensity - Wind Radii - Intensity Data - Source Data - All data

Summary Information

Storm ID 1874011S14064
Start Jan 11 06Z
End Jan 18 06Z
ATCF IDs
Track status Best track data.

Storm track plot

Map of storm track

Intensity plots

No Intensity information for this storm


Radial wind information

No radial wind information for this storm


Position and Intensity Table

BASIN ISO_TIME_________ NATURE LAT LON
degrees north degrees east
SI 1874-01-11 06:00:00 NR -13.70 63.90
SI 09:00:00 NR -13.72 63.88
SI 12:00:00 NR -13.75 63.85
SI 15:00:00 NR -13.80 63.82
SI 18:00:00 NR -13.88 63.77
SI 21:00:00 NR -14.02 63.70
SI 1874-01-12 00:00:00 NR -14.21 63.60
SI 03:00:00 NR -14.46 63.47
SI 06:00:00 NR -14.80 63.30
SI 09:00:00 NR -15.22 63.09
SI 12:00:00 NR -15.72 62.85
SI 15:00:00 NR -16.27 62.58
SI 18:00:00 NR -16.86 62.30
SI 21:00:00 NR -17.46 62.01
SI 1874-01-13 00:00:00 NR -18.07 61.73
SI 03:00:00 NR -18.65 61.45
SI 06:00:00 NR -19.20 61.20
SI 09:00:00 NR -19.63 61.00
SI 12:00:00 NR -20.03 60.82
SI 15:00:00 NR -20.41 60.66
SI 18:00:00 NR -20.77 60.51
SI 21:00:00 NR -21.12 60.38
SI 1874-01-14 00:00:00 NR -21.47 60.25
SI 03:00:00 NR -21.83 60.12
SI 06:00:00 NR -22.20 60.00
SI 09:00:00 NR -22.58 59.86
SI 12:00:00 NR -22.96 59.73
SI 15:00:00 NR -23.35 59.59
SI 18:00:00 NR -23.76 59.47
SI 21:00:00 NR -24.20 59.34
SI 1874-01-15 00:00:00 NR -24.66 59.23
SI 03:00:00 NR -25.16 59.11
SI 06:00:00 NR -25.70 59.00
SI 09:00:00 NR -26.32 58.86
SI 12:00:00 NR -26.98 58.73
SI 15:00:00 NR -27.67 58.60
SI 18:00:00 NR -28.38 58.48
SI 21:00:00 NR -29.11 58.38
SI 1874-01-16 00:00:00 NR -29.82 58.29
SI 03:00:00 NR -30.53 58.23
SI 06:00:00 NR -31.20 58.20
SI 09:00:00 NR -31.87 58.22
SI 12:00:00 NR -32.52 58.28
SI 15:00:00 NR -33.14 58.36
SI 18:00:00 NR -33.74 58.46
SI 21:00:00 NR -34.29 58.58
SI 1874-01-17 00:00:00 NR -34.79 58.69
SI 03:00:00 NR -35.23 58.80
SI 06:00:00 NR -35.60 58.90
SI 09:00:00 NR -35.90 58.98
SI 12:00:00 NR -36.12 59.03
SI 15:00:00 NR -36.29 59.07
SI 18:00:00 NR -36.41 59.09
SI 21:00:00 NR -36.49 59.11
SI 1874-01-18 00:00:00 NR -36.55 59.11
SI 03:00:00 NR -36.58 59.11
SI 06:00:00 NR -36.60 59.10

Source Information

Agency Information
USA
TOKYO
CMA
HKO
NEWDELHI
REUNION WMO-Best-Tracks.txt:Line=1016:xxxx874148
BOM
NADI
WELLINGTON
DS824
TD9636
TD9635
NEUMANN
MLC

All available IBTrACS Data

SEASON BASIN SUBBASIN ISO_TIME_________ NATURE LAT LON WMO AGENCY DIST2LAND LANDFALL IFLAG USA SSHS REUNION LAT REUNION LON REUNION TYPE REUNION TNUM STORM SPEED STORM DIR
Year degrees north degrees east km km 1 degrees north degrees east 1 kts degrees
1874 SI MM 1874-01-11 06:00:00 NR -13.70 63.90 reunion 973 973 _____O________ -1 -13.70 63.90 99 9.90 1 0
1874 SI MM 09:00:00 NR -13.72 63.88 973 973 _____P________ -1 -13.72 63.88 99 1 214
1874 SI MM 12:00:00 NR -13.75 63.85 973 957 _____P________ -1 -13.75 63.85 99 1 214
1874 SI MM 15:00:00 NR -13.80 63.82 957 949 _____P________ -1 -13.80 63.82 99 2 212
1874 SI MM 18:00:00 NR -13.88 63.77 949 934 _____P________ -1 -13.88 63.77 99 3 208
1874 SI MM 21:00:00 NR -14.02 63.70 934 910 _____P________ -1 -14.02 63.70 99 4 207
1874 SI MM 1874-01-12 00:00:00 NR -14.21 63.60 910 886 _____P________ -1 -14.21 63.60 99 5 206
1874 SI MM 03:00:00 NR -14.46 63.47 878 839 _____P________ -1 -14.46 63.47 99 7 206
1874 SI MM 06:00:00 NR -14.80 63.30 reunion 839 792 _____O________ -1 -14.80 63.30 99 9.90 8 205
1874 SI MM 09:00:00 NR -15.22 63.09 792 738 _____P________ -1 -15.22 63.09 99 10 205
1874 SI MM 12:00:00 NR -15.72 62.85 738 677 _____P________ -1 -15.72 62.85 99 12 205
1874 SI MM 15:00:00 NR -16.27 62.58 669 609 _____P________ -1 -16.27 62.58 99 13 205
1874 SI MM 18:00:00 NR -16.86 62.30 602 544 _____P________ -1 -16.86 62.30 99 13 205
1874 SI MM 21:00:00 NR -17.46 62.01 538 481 _____P________ -1 -17.46 62.01 99 13 204
1874 SI MM 1874-01-13 00:00:00 NR -18.07 61.73 476 432 _____P________ -1 -18.07 61.73 99 13 204
1874 SI MM 03:00:00 NR -18.65 61.45 427 376 _____P________ -1 -18.65 61.45 99 12 204
1874 SI MM 06:00:00 NR -19.20 61.20 reunion 376 343 _____O________ -1 -19.20 61.20 99 9.90 11 204
1874 SI MM 09:00:00 NR -19.63 61.00 343 314 _____P________ -1 -19.63 61.00 99 9 203
1874 SI MM 12:00:00 NR -20.03 60.82 314 302 _____P________ -1 -20.03 60.82 99 8 202
1874 SI MM 15:00:00 NR -20.41 60.66 302 284 _____P________ -1 -20.41 60.66 99 8 202
1874 SI MM 18:00:00 NR -20.77 60.51 286 278 _____P________ -1 -20.77 60.51 99 8 201
1874 SI MM 21:00:00 NR -21.12 60.38 284 278 _____P________ -1 -21.12 60.38 99 8 200
1874 SI MM 1874-01-14 00:00:00 NR -21.47 60.25 282 282 _____P________ -1 -21.47 60.25 99 8 199
1874 SI MM 03:00:00 NR -21.83 60.12 288 288 _____P________ -1 -21.83 60.12 99 8 197
1874 SI MM 06:00:00 NR -22.20 60.00 reunion 304 303 _____O________ -1 -22.20 60.00 99 9.90 8 198
1874 SI MM 09:00:00 NR -22.58 59.86 326 319 _____P________ -1 -22.58 59.86 99 8 198
1874 SI MM 12:00:00 NR -22.96 59.73 347 347 _____P________ -1 -22.96 59.73 99 8 198
1874 SI MM 15:00:00 NR -23.35 59.59 378 378 _____P________ -1 -23.35 59.59 99 8 196
1874 SI MM 18:00:00 NR -23.76 59.47 412 408 _____P________ -1 -23.76 59.47 99 9 195
1874 SI MM 21:00:00 NR -24.20 59.34 445 445 _____P________ -1 -24.20 59.34 99 9 194
1874 SI MM 1874-01-15 00:00:00 NR -24.66 59.23 494 494 _____P________ -1 -24.66 59.23 99 10 193
1874 SI MM 03:00:00 NR -25.16 59.11 544 544 _____P________ -1 -25.16 59.11 99 11 191
1874 SI MM 06:00:00 NR -25.70 59.00 reunion 590 590 _____O________ -1 -25.70 59.00 99 9.90 12 191
1874 SI MM 09:00:00 NR -26.32 58.86 641 641 _____P________ -1 -26.32 58.86 99 13 191
1874 SI MM 12:00:00 NR -26.98 58.73 700 700 _____P________ -1 -26.98 58.73 99 14 190
1874 SI MM 15:00:00 NR -27.67 58.60 766 766 _____P________ -1 -27.67 58.60 99 14 189
1874 SI MM 18:00:00 NR -28.38 58.48 834 834 _____P________ -1 -28.38 58.48 99 15 188
1874 SI MM 21:00:00 NR -29.11 58.38 905 905 _____P________ -1 -29.11 58.38 99 15 187
1874 SI MM 1874-01-16 00:00:00 NR -29.82 58.29 976 976 _____P________ -1 -29.82 58.29 99 14 185
1874 SI MM 03:00:00 NR -30.53 58.23 1049 1049 _____P________ -1 -30.53 58.23 99 14 183
1874 SI MM 06:00:00 NR -31.20 58.20 reunion 1124 1124 _____O________ -1 -31.20 58.20 99 9.90 13 181
1874 SI MM 09:00:00 NR -31.87 58.22 1200 1200 _____P________ -1 -31.87 58.22 99 13 177
1874 SI MM 12:00:00 NR -32.52 58.28 1267 1267 _____P________ -1 -32.52 58.28 99 13 175
1874 SI MM 15:00:00 NR -33.14 58.36 1335 1335 _____P________ -1 -33.14 58.36 99 12 173
1874 SI MM 18:00:00 NR -33.74 58.46 1402 1402 _____P________ -1 -33.74 58.46 99 12 171
1874 SI MM 21:00:00 NR -34.29 58.58 1469 1469 _____P________ -1 -34.29 58.58 99 11 170
1874 SI MM 1874-01-17 00:00:00 NR -34.79 58.69 1526 1526 _____P________ -1 -34.79 58.69 99 10 169
1874 SI MM 03:00:00 NR -35.23 58.80 1571 1571 _____P________ -1 -35.23 58.80 99 8 168
1874 SI MM 06:00:00 NR -35.60 58.90 reunion 1617 1617 _____O________ -1 -35.60 58.90 99 9.90 7 168
1874 SI MM 09:00:00 NR -35.90 58.98 1644 1624 _____P________ -1 -35.90 58.98 99 5 169
1874 SI MM 12:00:00 NR -36.12 59.03 1624 1600 _____P________ -1 -36.12 59.03 99 4 169
1874 SI MM 15:00:00 NR -36.29 59.07 1600 1590 _____P________ -1 -36.29 59.07 99 3 170
1874 SI MM 18:00:00 NR -36.41 59.09 1590 1580 _____P________ -1 -36.41 59.09 99 2 168
1874 SI MM 21:00:00 NR -36.49 59.11 1580 1580 _____P________ -1 -36.49 59.11 99 1 0
1874 SI MM 1874-01-18 00:00:00 NR -36.55 59.11 1580 1571 _____P________ -1 -36.55 59.11 99 1 198
1874 SI MM 03:00:00 NR -36.58 59.11 1571 1571 _____P________ -1 -36.58 59.11 99 1 192
1874 SI MM 06:00:00 NR -36.60 59.10 reunion 1571 _____O________ -1 -36.60 59.10 99 9.90 0 0